sensor_id;sensor_type;location;lat;lon;timestamp;pressure;altitude;pressure_sealevel;temperature;humidity
8920;BME280;4495;42.644;23.274;2024-02-15T00:00:02;93358.53;;;0.94;64.11
8920;BME280;4495;42.644;23.274;2024-02-15T00:02:28;93356.56;;;1.01;65.72
8920;BME280;4495;42.644;23.274;2024-02-15T00:04:54;93360.34;;;0.98;64.98
8920;BME280;4495;42.644;23.274;2024-02-15T00:07:19;93352.91;;;0.92;66.03
8920;BME280;4495;42.644;23.274;2024-02-15T00:09:47;93357.31;;;1.01;66.04
8920;BME280;4495;42.644;23.274;2024-02-15T00:12:13;93362.69;;;1.05;65.67
8920;BME280;4495;42.644;23.274;2024-02-15T00:14:38;93354.06;;;1.21;66.71
8920;BME280;4495;42.644;23.274;2024-02-15T00:17:04;93360.41;;;1.09;63.92
8920;BME280;4495;42.644;23.274;2024-02-15T00:19:30;93363.25;;;1.12;64.36
8920;BME280;4495;42.644;23.274;2024-02-15T00:21:56;93361.16;;;1.04;66.35
8920;BME280;4495;42.644;23.274;2024-02-15T00:24:21;93363.47;;;1.06;64.77
8920;BME280;4495;42.644;23.274;2024-02-15T00:26:47;93357.78;;;0.98;65.28
8920;BME280;4495;42.644;23.274;2024-02-15T00:29:13;93361.16;;;0.99;65.34
8920;BME280;4495;42.644;23.274;2024-02-15T00:31:39;93361.69;;;1.01;64.18
8920;BME280;4495;42.644;23.274;2024-02-15T00:34:05;93372.94;;;1.00;64.88
8920;BME280;4495;42.644;23.274;2024-02-15T00:36:31;93369.59;;;0.99;65.39
8920;BME280;4495;42.644;23.274;2024-02-15T00:38:57;93370.38;;;1.00;64.61
8920;BME280;4495;42.644;23.274;2024-02-15T00:41:23;93372.94;;;1.05;65.05
8920;BME280;4495;42.644;23.274;2024-02-15T00:43:48;93374.19;;;0.92;63.14
8920;BME280;4495;42.644;23.274;2024-02-15T00:46:16;93380.00;;;0.82;64.01
8920;BME280;4495;42.644;23.274;2024-02-15T00:48:41;93374.41;;;0.86;64.79
8920;BME280;4495;42.644;23.274;2024-02-15T00:51:07;93366.22;;;0.94;64.45
8920;BME280;4495;42.644;23.274;2024-02-15T00:53:33;93363.59;;;0.78;65.51
8920;BME280;4495;42.644;23.274;2024-02-15T00:55:59;93365.16;;;0.85;65.29
8920;BME280;4495;42.644;23.274;2024-02-15T00:58:24;93361.28;;;0.77;65.54
8920;BME280;4495;42.644;23.274;2024-02-15T01:00:52;93371.34;;;0.89;65.04
8920;BME280;4495;42.644;23.274;2024-02-15T01:03:17;93374.66;;;0.89;65.97
8920;BME280;4495;42.644;23.274;2024-02-15T01:05:43;93369.00;;;0.87;64.31
8920;BME280;4495;42.644;23.274;2024-02-15T01:08:08;93366.72;;;0.86;65.53
8920;BME280;4495;42.644;23.274;2024-02-15T01:10:34;93364.63;;;0.82;63.83
8920;BME280;4495;42.644;23.274;2024-02-15T01:13:00;93361.59;;;0.86;66.84
8920;BME280;4495;42.644;23.274;2024-02-15T01:15:26;93372.09;;;0.89;65.92
8920;BME280;4495;42.644;23.274;2024-02-15T01:17:51;93371.31;;;0.83;63.83
8920;BME280;4495;42.644;23.274;2024-02-15T01:20:17;93360.03;;;0.85;65.78
8920;BME280;4495;42.644;23.274;2024-02-15T01:22:42;93364.16;;;0.86;65.49
8920;BME280;4495;42.644;23.274;2024-02-15T01:25:09;93360.09;;;0.95;65.05
8920;BME280;4495;42.644;23.274;2024-02-15T01:27:36;93364.19;;;0.91;64.56
8920;BME280;4495;42.644;23.274;2024-02-15T01:30:02;93366.22;;;0.94;65.92
8920;BME280;4495;42.644;23.274;2024-02-15T01:32:27;93353.41;;;0.89;64.29
8920;BME280;4495;42.644;23.274;2024-02-15T01:34:52;93355.97;;;0.89;64.31
8920;BME280;4495;42.644;23.274;2024-02-15T01:37:20;93354.47;;;0.98;65.16
8920;BME280;4495;42.644;23.274;2024-02-15T01:39:46;93362.59;;;0.85;64.87
8920;BME280;4495;42.644;23.274;2024-02-15T01:42:12;93361.59;;;0.86;64.83
8920;BME280;4495;42.644;23.274;2024-02-15T01:44:42;93355.44;;;0.87;63.36
8920;BME280;4495;42.644;23.274;2024-02-15T01:47:10;93364.38;;;0.79;65.37
8920;BME280;4495;42.644;23.274;2024-02-15T01:49:36;93366.63;;;0.70;64.49
8920;BME280;4495;42.644;23.274;2024-02-15T01:52:02;93364.06;;;0.70;65.25
8920;BME280;4495;42.644;23.274;2024-02-15T01:54:30;93371.75;;;0.70;64.69
8920;BME280;4495;42.644;23.274;2024-02-15T01:56:57;93365.59;;;0.71;65.24
8920;BME280;4495;42.644;23.274;2024-02-15T01:59:23;93368.16;;;0.71;64.93
8920;BME280;4495;42.644;23.274;2024-02-15T02:01:50;93363.81;;;0.72;65.98
8920;BME280;4495;42.644;23.274;2024-02-15T02:04:16;93363.53;;;0.68;64.79
8920;BME280;4495;42.644;23.274;2024-02-15T02:06:41;93366.88;;;0.69;65.16
8920;BME280;4495;42.644;23.274;2024-02-15T02:09:13;93369.94;;;0.71;66.24
8920;BME280;4495;42.644;23.274;2024-02-15T02:11:44;93368.38;;;0.65;66.24
8920;BME280;4495;42.644;23.274;2024-02-15T02:14:10;93366.09;;;0.68;64.81
8920;BME280;4495;42.644;23.274;2024-02-15T02:16:36;93364.28;;;0.64;65.35
8920;BME280;4495;42.644;23.274;2024-02-15T02:19:04;93364.06;;;0.70;67.22
8920;BME280;4495;42.644;23.274;2024-02-15T02:21:35;93371.00;;;0.75;64.43
8920;BME280;4495;42.644;23.274;2024-02-15T02:24:03;93372.75;;;0.69;64.84
8920;BME280;4495;42.644;23.274;2024-02-15T02:26:33;93368.69;;;0.73;66.68
8920;BME280;4495;42.644;23.274;2024-02-15T02:29:00;93377.63;;;0.71;65.20
8920;BME280;4495;42.644;23.274;2024-02-15T02:31:26;93367.72;;;0.85;66.46
8920;BME280;4495;42.644;23.274;2024-02-15T02:33:53;93373.38;;;0.92;65.00
8920;BME280;4495;42.644;23.274;2024-02-15T02:36:19;93369.50;;;0.84;63.49
8920;BME280;4495;42.644;23.274;2024-02-15T02:38:45;93382.81;;;0.81;63.51
8920;BME280;4495;42.644;23.274;2024-02-15T02:41:11;93383.06;;;0.79;63.21
8920;BME280;4495;42.644;23.274;2024-02-15T02:43:39;93383.06;;;0.79;64.21
8920;BME280;4495;42.644;23.274;2024-02-15T02:46:05;93378.16;;;0.73;64.03
8920;BME280;4495;42.644;23.274;2024-02-15T02:48:31;93383.50;;;0.71;64.53
8920;BME280;4495;42.644;23.274;2024-02-15T02:50:57;93380.22;;;0.76;64.82
8920;BME280;4495;42.644;23.274;2024-02-15T02:53:23;93383.50;;;0.71;64.86
8920;BME280;4495;42.644;23.274;2024-02-15T02:55:49;93387.88;;;0.71;65.00
8920;BME280;4495;42.644;23.274;2024-02-15T02:58:14;93385.06;;;0.72;63.10
8920;BME280;4495;42.644;23.274;2024-02-15T03:00:40;93386.91;;;0.77;65.48
8920;BME280;4495;42.644;23.274;2024-02-15T03:03:05;93387.88;;;0.71;64.51
8920;BME280;4495;42.644;23.274;2024-02-15T03:05:31;93385.00;;;0.62;66.00
8920;BME280;4495;42.644;23.274;2024-02-15T03:07:56;93384.47;;;0.60;65.27
8920;BME280;4495;42.644;23.274;2024-02-15T03:10:22;93383.41;;;0.56;66.13
8920;BME280;4495;42.644;23.274;2024-02-15T03:12:49;93384.16;;;0.51;63.72
8920;BME280;4495;42.644;23.274;2024-02-15T03:15:15;93385.22;;;0.55;64.65
8920;BME280;4495;42.644;23.274;2024-02-15T03:17:42;93384.22;;;0.56;65.01
8920;BME280;4495;42.644;23.274;2024-02-15T03:20:09;93387.84;;;0.66;65.49
8920;BME280;4495;42.644;23.274;2024-02-15T03:22:50;93393.50;;;0.68;65.44
8920;BME280;4495;42.644;23.274;2024-02-15T03:25:16;93380.19;;;0.71;66.17
8920;BME280;4495;42.644;23.274;2024-02-15T03:27:42;93392.44;;;0.64;65.39
8920;BME280;4495;42.644;23.274;2024-02-15T03:30:08;93393.44;;;0.62;64.75
8920;BME280;4495;42.644;23.274;2024-02-15T03:32:35;93397.78;;;0.62;65.08
8920;BME280;4495;42.644;23.274;2024-02-15T03:35:01;93392.44;;;0.64;64.97
8920;BME280;4495;42.644;23.274;2024-02-15T03:37:26;93390.31;;;0.55;63.98
8920;BME280;4495;42.644;23.274;2024-02-15T03:39:52;93389.56;;;0.55;65.39
8920;BME280;4495;42.644;23.274;2024-02-15T03:42:17;93386.72;;;0.51;64.51
8920;BME280;4495;42.644;23.274;2024-02-15T03:44:43;93393.94;;;0.59;64.33
8920;BME280;4495;42.644;23.274;2024-02-15T03:47:08;93392.41;;;0.58;64.17
8920;BME280;4495;42.644;23.274;2024-02-15T03:49:34;93394.75;;;0.65;63.43
8920;BME280;4495;42.644;23.274;2024-02-15T03:51:59;93400.34;;;0.57;65.09
8920;BME280;4495;42.644;23.274;2024-02-15T03:54:27;93394.88;;;0.43;64.14
8920;BME280;4495;42.644;23.274;2024-02-15T03:56:55;93394.38;;;0.46;65.27
8920;BME280;4495;42.644;23.274;2024-02-15T03:59:23;93397.66;;;0.41;65.25
8920;BME280;4495;42.644;23.274;2024-02-15T04:01:55;93396.91;;;0.41;65.57
8920;BME280;4495;42.644;23.274;2024-02-15T04:04:21;93404.50;;;0.36;66.49
8920;BME280;4495;42.644;23.274;2024-02-15T04:06:50;93405.44;;;0.25;65.47
8920;BME280;4495;42.644;23.274;2024-02-15T04:09:16;93405.97;;;0.27;67.74
8920;BME280;4495;42.644;23.274;2024-02-15T04:11:48;93407.25;;;0.24;65.92
8920;BME280;4495;42.644;23.274;2024-02-15T04:14:18;93401.16;;;0.30;65.84
8920;BME280;4495;42.644;23.274;2024-02-15T04:16:44;93408.69;;;0.15;66.00
8920;BME280;4495;42.644;23.274;2024-02-15T04:19:13;93404.63;;;0.14;66.30
8920;BME280;4495;42.644;23.274;2024-02-15T04:21:38;93402.28;;;0.12;66.00
8920;BME280;4495;42.644;23.274;2024-02-15T04:24:05;93401.53;;;0.12;67.04
8920;BME280;4495;42.644;23.274;2024-02-15T04:26:31;93407.94;;;0.14;67.11
8920;BME280;4495;42.644;23.274;2024-02-15T04:28:57;93415.22;;;0.01;67.56
8920;BME280;4495;42.644;23.274;2024-02-15T04:31:24;93411.09;;;-0.06;67.11
8920;BME280;4495;42.644;23.274;2024-02-15T04:33:54;93417.72;;;-0.05;66.78
8920;BME280;4495;42.644;23.274;2024-02-15T04:36:21;93416.69;;;-0.09;68.09
8920;BME280;4495;42.644;23.274;2024-02-15T04:38:51;93416.72;;;-0.04;67.26
8920;BME280;4495;42.644;23.274;2024-02-15T04:41:20;93423.09;;;-0.06;67.69
8920;BME280;4495;42.644;23.274;2024-02-15T04:43:48;93417.78;;;0.01;67.59
8920;BME280;4495;42.644;23.274;2024-02-15T04:46:14;93421.84;;;-0.04;67.93
8920;BME280;4495;42.644;23.274;2024-02-15T04:48:40;93419.78;;;-0.07;67.75
8920;BME280;4495;42.644;23.274;2024-02-15T04:51:10;93431.03;;;-0.03;67.81
8920;BME280;4495;42.644;23.274;2024-02-15T04:53:38;93428.22;;;-0.06;67.94
8920;BME280;4495;42.644;23.274;2024-02-15T04:56:07;93430.47;;;-0.10;67.35
8920;BME280;4495;42.644;23.274;2024-02-15T04:58:38;93425.16;;;-0.03;67.06
8920;BME280;4495;42.644;23.274;2024-02-15T05:01:14;93426.41;;;-0.06;66.38
8920;BME280;4495;42.644;23.274;2024-02-15T05:03:39;93437.94;;;-0.03;66.97
8920;BME280;4495;42.644;23.274;2024-02-15T05:06:05;93443.16;;;0.07;65.57
8920;BME280;4495;42.644;23.274;2024-02-15T05:08:30;93441.81;;;-0.01;66.43
8920;BME280;4495;42.644;23.274;2024-02-15T05:10:57;93444.38;;;-0.01;65.22
8920;BME280;4495;42.644;23.274;2024-02-15T05:13:26;93452.03;;;-0.01;65.92
8920;BME280;4495;42.644;23.274;2024-02-15T05:15:51;93450.47;;;-0.07;66.81
8920;BME280;4495;42.644;23.274;2024-02-15T05:18:17;93449.66;;;-0.07;66.88
8920;BME280;4495;42.644;23.274;2024-02-15T05:20:43;93453.19;;;-0.13;65.72
8920;BME280;4495;42.644;23.274;2024-02-15T05:23:09;93447.41;;;-0.04;69.25
8920;BME280;4495;42.644;23.274;2024-02-15T05:25:34;93450.53;;;0.04;65.20
8920;BME280;4495;42.644;23.274;2024-02-15T05:28:00;93440.66;;;-0.15;66.47
8920;BME280;4495;42.644;23.274;2024-02-15T05:30:26;93453.03;;;-0.07;67.55
8920;BME280;4495;42.644;23.274;2024-02-15T05:32:52;93450.72;;;-0.03;66.65
8920;BME280;4495;42.644;23.274;2024-02-15T05:35:18;93455.69;;;0.09;67.09
8920;BME280;4495;42.644;23.274;2024-02-15T05:37:44;93457.41;;;-0.02;67.07
8920;BME280;4495;42.644;23.274;2024-02-15T05:40:11;93466.44;;;0.06;66.91
8920;BME280;4495;42.644;23.274;2024-02-15T05:42:42;93466.66;;;0.04;68.02
8920;BME280;4495;42.644;23.274;2024-02-15T05:47:52;93467.34;;;-0.06;66.34
8920;BME280;4495;42.644;23.274;2024-02-15T05:50:18;93462.78;;;0.02;67.70
8920;BME280;4495;42.644;23.274;2024-02-15T05:52:46;93470.44;;;-0.04;66.13
8920;BME280;4495;42.644;23.274;2024-02-15T05:55:12;93475.50;;;-0.09;66.63
8920;BME280;4495;42.644;23.274;2024-02-15T05:57:42;93476.53;;;-0.05;67.48
8920;BME280;4495;42.644;23.274;2024-02-15T06:00:08;93472.97;;;-0.04;66.79
8920;BME280;4495;42.644;23.274;2024-02-15T06:02:33;93481.72;;;0.01;66.29
8920;BME280;4495;42.644;23.274;2024-02-15T06:04:59;93481.91;;;-0.06;66.95
8920;BME280;4495;42.644;23.274;2024-02-15T06:07:28;93486.66;;;0.07;67.51
8920;BME280;4495;42.644;23.274;2024-02-15T06:09:54;93492.19;;;-0.01;67.38
8920;BME280;4495;42.644;23.274;2024-02-15T06:12:19;93482.97;;;-0.02;66.80
8920;BME280;4495;42.644;23.274;2024-02-15T06:14:45;93491.19;;;0.00;66.47
8920;BME280;4495;42.644;23.274;2024-02-15T06:17:11;93493.47;;;0.02;65.77
8920;BME280;4495;42.644;23.274;2024-02-15T06:19:37;93493.66;;;-0.05;65.87
8920;BME280;4495;42.644;23.274;2024-02-15T06:22:03;93490.97;;;0.07;66.17
8920;BME280;4495;42.644;23.274;2024-02-15T06:24:29;93488.75;;;0.15;66.05
8920;BME280;4495;42.644;23.274;2024-02-15T06:26:54;93491.66;;;0.24;65.31
8920;BME280;4495;42.644;23.274;2024-02-15T06:29:27;93495.81;;;0.30;65.39
8920;BME280;4495;42.644;23.274;2024-02-15T06:32:11;93505.28;;;0.30;64.77
8920;BME280;4495;42.644;23.274;2024-02-15T06:34:55;93505.31;;;0.35;63.33
8920;BME280;4495;42.644;23.274;2024-02-15T06:37:39;93503.06;;;0.38;63.23
8920;BME280;4495;42.644;23.274;2024-02-15T06:40:24;93499.00;;;0.43;63.14
8920;BME280;4495;42.644;23.274;2024-02-15T06:42:49;93507.00;;;0.51;63.89
8920;BME280;4495;42.644;23.274;2024-02-15T06:45:15;93513.03;;;0.40;62.70
8920;BME280;4495;42.644;23.274;2024-02-15T06:47:42;93513.69;;;0.52;64.50
8920;BME280;4495;42.644;23.274;2024-02-15T06:50:14;93513.75;;;0.62;63.82
8920;BME280;4495;42.644;23.274;2024-02-15T06:52:43;93518.09;;;0.62;61.96
8920;BME280;4495;42.644;23.274;2024-02-15T06:55:09;93510.75;;;0.71;64.46
8920;BME280;4495;42.644;23.274;2024-02-15T06:57:41;93514.59;;;0.68;63.62
8920;BME280;4495;42.644;23.274;2024-02-15T07:00:07;93517.16;;;0.41;63.95
8920;BME280;4495;42.644;23.274;2024-02-15T07:02:34;93514.22;;;0.54;63.82
8920;BME280;4495;42.644;23.274;2024-02-15T07:05:00;93514.75;;;0.56;63.66
8920;BME280;4495;42.644;23.274;2024-02-15T07:07:26;93511.38;;;0.56;62.99
8920;BME280;4495;42.644;23.274;2024-02-15T07:09:51;93521.69;;;0.61;63.49
8920;BME280;4495;42.644;23.274;2024-02-15T07:12:16;93514.25;;;0.59;63.34
8920;BME280;4495;42.644;23.274;2024-02-15T07:14:44;93519.31;;;0.81;63.57
8920;BME280;4495;42.644;23.274;2024-02-15T07:17:10;93508.09;;;0.60;63.79
8920;BME280;4495;42.644;23.274;2024-02-15T07:19:36;93518.59;;;0.59;63.86
8920;BME280;4495;42.644;23.274;2024-02-15T07:22:03;93510.81;;;0.22;65.02
8920;BME280;4495;42.644;23.274;2024-02-15T07:24:29;93508.94;;;0.39;64.14
8920;BME280;4495;42.644;23.274;2024-02-15T07:26:54;93500.34;;;0.50;64.87
8920;BME280;4495;42.644;23.274;2024-02-15T07:29:23;93499.59;;;0.50;63.80
8920;BME280;4495;42.644;23.274;2024-02-15T07:31:49;93496.53;;;0.53;63.77
8920;BME280;4495;42.644;23.274;2024-02-15T07:34:14;93500.47;;;0.66;63.46
8920;BME280;4495;42.644;23.274;2024-02-15T07:36:41;93492.09;;;0.75;62.84
8920;BME280;4495;42.644;23.274;2024-02-15T07:39:07;93496.25;;;0.81;62.59
8920;BME280;4495;42.644;23.274;2024-02-15T07:41:38;93495.00;;;0.84;62.24
8920;BME280;4495;42.644;23.274;2024-02-15T07:44:03;93486.63;;;0.61;62.21
8920;BME280;4495;42.644;23.274;2024-02-15T07:46:29;93489.72;;;0.64;63.98
8920;BME280;4495;42.644;23.274;2024-02-15T07:48:55;93492.53;;;0.67;62.46
8920;BME280;4495;42.644;23.274;2024-02-15T07:51:21;93495.44;;;0.76;63.67
8920;BME280;4495;42.644;23.274;2024-02-15T07:53:48;93500.31;;;0.77;62.58
8920;BME280;4495;42.644;23.274;2024-02-15T07:56:16;93493.72;;;0.87;61.40
8920;BME280;4495;42.644;23.274;2024-02-15T07:58:45;93509.78;;;0.77;62.85
8920;BME280;4495;42.644;23.274;2024-02-15T08:01:14;93498.47;;;0.68;63.53
8920;BME280;4495;42.644;23.274;2024-02-15T08:03:40;93506.97;;;0.78;61.65
8920;BME280;4495;42.644;23.274;2024-02-15T08:06:12;93498.78;;;0.76;61.88
8920;BME280;4495;42.644;23.274;2024-02-15T08:08:41;93504.72;;;0.87;61.85
8920;BME280;4495;42.644;23.274;2024-02-15T08:11:07;93501.72;;;0.95;61.27
8920;BME280;4495;42.644;23.274;2024-02-15T08:13:42;93481.31;;;1.06;61.68
8920;BME280;4495;42.644;23.274;2024-02-15T08:16:08;93485.16;;;1.08;61.06
8920;BME280;4495;42.644;23.274;2024-02-15T08:18:33;93486.28;;;1.22;60.71
8920;BME280;4495;42.644;23.274;2024-02-15T08:21:00;93487.53;;;1.15;62.24
8920;BME280;4495;42.644;23.274;2024-02-15T08:23:25;93491.78;;;0.99;61.08
8920;BME280;4495;42.644;23.274;2024-02-15T08:25:52;93484.22;;;1.19;62.17
8920;BME280;4495;42.644;23.274;2024-02-15T08:28:19;93492.69;;;1.25;61.08
8920;BME280;4495;42.644;23.274;2024-02-15T08:30:46;93481.75;;;1.35;62.60
8920;BME280;4495;42.644;23.274;2024-02-15T08:33:12;93482.97;;;1.27;62.27
8920;BME280;4495;42.644;23.274;2024-02-15T08:35:38;93479.75;;;1.47;61.08
8920;BME280;4495;42.644;23.274;2024-02-15T08:38:06;93488.00;;;1.59;61.99
8920;BME280;4495;42.644;23.274;2024-02-15T08:40:31;93488.00;;;1.59;62.27
8920;BME280;4495;42.644;23.274;2024-02-15T08:42:56;93486.91;;;1.45;61.10
8920;BME280;4495;42.644;23.274;2024-02-15T08:45:22;93479.56;;;1.64;60.50
8920;BME280;4495;42.644;23.274;2024-02-15T08:47:48;93483.44;;;1.77;62.68
8920;BME280;4495;42.644;23.274;2024-02-15T08:50:15;93480.34;;;1.75;62.07
8920;BME280;4495;42.644;23.274;2024-02-15T08:52:41;93482.69;;;1.81;61.51
8920;BME280;4495;42.644;23.274;2024-02-15T08:55:10;93471.13;;;1.74;61.19
8920;BME280;4495;42.644;23.274;2024-02-15T08:57:39;93477.34;;;1.88;60.58
8920;BME280;4495;42.644;23.274;2024-02-15T09:00:06;93471.19;;;1.94;60.10
8920;BME280;4495;42.644;23.274;2024-02-15T09:02:41;93481.44;;;1.89;60.25
8920;BME280;4495;42.644;23.274;2024-02-15T09:05:07;93479.13;;;1.87;59.82
8920;BME280;4495;42.644;23.274;2024-02-15T09:07:32;93482.75;;;1.92;59.97
8920;BME280;4495;42.644;23.274;2024-02-15T09:09:58;93487.06;;;1.81;59.13
8920;BME280;4495;42.644;23.274;2024-02-15T09:12:24;93475.03;;;1.86;59.82
8920;BME280;4495;42.644;23.274;2024-02-15T09:14:49;93475.00;;;1.81;60.38
8920;BME280;4495;42.644;23.274;2024-02-15T09:17:14;93480.69;;;1.94;59.02
8920;BME280;4495;42.644;23.274;2024-02-15T09:19:40;93465.31;;;1.94;58.34
8920;BME280;4495;42.644;23.274;2024-02-15T09:22:06;93467.91;;;2.09;59.23
8920;BME280;4495;42.644;23.274;2024-02-15T09:24:32;93465.63;;;2.23;59.39
8920;BME280;4495;42.644;23.274;2024-02-15T09:27:01;93473.59;;;2.32;59.31
8920;BME280;4495;42.644;23.274;2024-02-15T09:29:28;93467.47;;;2.38;59.72
8920;BME280;4495;42.644;23.274;2024-02-15T09:31:55;93462.06;;;2.44;59.96
8920;BME280;4495;42.644;23.274;2024-02-15T09:34:21;93466.69;;;2.42;59.42
8920;BME280;4495;42.644;23.274;2024-02-15T09:36:46;93462.06;;;2.60;59.80
8920;BME280;4495;42.644;23.274;2024-02-15T09:39:12;93468.72;;;2.50;58.08
8920;BME280;4495;42.644;23.274;2024-02-15T09:41:39;93460.00;;;2.62;58.80
8920;BME280;4495;42.644;23.274;2024-02-15T09:44:05;93461.81;;;2.77;60.45
8920;BME280;4495;42.644;23.274;2024-02-15T09:46:35;93461.81;;;2.82;60.29
8920;BME280;4495;42.644;23.274;2024-02-15T09:49:01;93469.25;;;2.88;59.30
8920;BME280;4495;42.644;23.274;2024-02-15T09:51:29;93459.47;;;2.96;60.31
8920;BME280;4495;42.644;23.274;2024-02-15T09:53:57;93463.88;;;2.85;59.41
8920;BME280;4495;42.644;23.274;2024-02-15T09:56:24;93454.84;;;2.98;60.30
8920;BME280;4495;42.644;23.274;2024-02-15T09:58:51;93464.38;;;2.92;60.37
8920;BME280;4495;42.644;23.274;2024-02-15T10:01:19;93457.94;;;2.95;59.34
8920;BME280;4495;42.644;23.274;2024-02-15T10:03:49;93450.50;;;3.03;58.07
8920;BME280;4495;42.644;23.274;2024-02-15T10:06:16;93448.16;;;3.07;59.76
8920;BME280;4495;42.644;23.274;2024-02-15T10:08:43;93446.84;;;3.20;59.64
8920;BME280;4495;42.644;23.274;2024-02-15T10:11:10;93438.13;;;3.10;59.70
8920;BME280;4495;42.644;23.274;2024-02-15T10:13:36;93440.66;;;3.31;58.52
8920;BME280;4495;42.644;23.274;2024-02-15T10:16:18;93432.97;;;3.26;59.52
8920;BME280;4495;42.644;23.274;2024-02-15T10:18:45;93435.25;;;3.32;59.34
8920;BME280;4495;42.644;23.274;2024-02-15T10:21:24;93421.84;;;3.41;57.73
8920;BME280;4495;42.644;23.274;2024-02-15T10:24:05;93429.06;;;3.33;58.48
8920;BME280;4495;42.644;23.274;2024-02-15T10:26:30;93421.38;;;3.39;58.82
8920;BME280;4495;42.644;23.274;2024-02-15T10:29:11;93422.91;;;3.40;59.15
8920;BME280;4495;42.644;23.274;2024-02-15T10:31:37;93417.78;;;3.24;59.63
8920;BME280;4495;42.644;23.274;2024-02-15T10:34:04;93413.88;;;3.42;58.10
8920;BME280;4495;42.644;23.274;2024-02-15T10:36:30;93413.84;;;3.52;59.19
8920;BME280;4495;42.644;23.274;2024-02-15T10:39:19;93409.66;;;3.67;59.16
8920;BME280;4495;42.644;23.274;2024-02-15T10:41:53;93422.53;;;3.67;58.12
8920;BME280;4495;42.644;23.274;2024-02-15T10:44:24;93411.94;;;3.73;58.83
8920;BME280;4495;42.644;23.274;2024-02-15T10:46:51;93413.69;;;3.88;59.12
8920;BME280;4495;42.644;23.274;2024-02-15T10:49:21;93410.13;;;3.74;57.05
8920;BME280;4495;42.644;23.274;2024-02-15T10:51:52;93411.63;;;3.85;56.50
8920;BME280;4495;42.644;23.274;2024-02-15T10:57:03;93396.19;;;3.90;56.77
8920;BME280;4495;42.644;23.274;2024-02-15T10:59:32;93406.94;;;3.98;57.36
8920;BME280;4495;42.644;23.274;2024-02-15T11:02:03;93404.94;;;3.89;56.45
8920;BME280;4495;42.644;23.274;2024-02-15T11:04:36;93402.81;;;3.96;57.41
8920;BME280;4495;42.644;23.274;2024-02-15T11:07:03;93401.53;;;3.99;58.30
8920;BME280;4495;42.644;23.274;2024-02-15T11:09:31;93404.03;;;4.09;58.16
8920;BME280;4495;42.644;23.274;2024-02-15T11:11:57;93394.72;;;4.19;55.56
8920;BME280;4495;42.644;23.274;2024-02-15T11:16:49;93388.75;;;4.28;55.47
8920;BME280;4495;42.644;23.274;2024-02-15T11:22:11;93393.44;;;4.50;55.62
8920;BME280;4495;42.644;23.274;2024-02-15T11:24:50;93386.97;;;4.58;56.73
8920;BME280;4495;42.644;23.274;2024-02-15T11:27:30;93386.53;;;4.75;54.94
8920;BME280;4495;42.644;23.274;2024-02-15T11:29:58;93395.72;;;4.86;54.48
8920;BME280;4495;42.644;23.274;2024-02-15T11:32:48;93388.63;;;4.73;54.26
8920;BME280;4495;42.644;23.274;2024-02-15T11:40:19;93379.50;;;5.10;54.82
8920;BME280;4495;42.644;23.274;2024-02-15T11:42:48;93375.88;;;5.35;53.71
8920;BME280;4495;42.644;23.274;2024-02-15T11:45:16;93379.53;;;5.34;53.62
8920;BME280;4495;42.644;23.274;2024-02-15T11:47:50;93379.28;;;5.30;52.29
8920;BME280;4495;42.644;23.274;2024-02-15T11:50:17;93378.41;;;5.40;53.11
8920;BME280;4495;42.644;23.274;2024-02-15T11:52:44;93381.13;;;6.30;51.78
8920;BME280;4495;42.644;23.274;2024-02-15T11:55:11;93374.13;;;6.96;51.96
8920;BME280;4495;42.644;23.274;2024-02-15T11:57:41;93371.16;;;7.30;47.43
8920;BME280;4495;42.644;23.274;2024-02-15T12:00:22;93375.38;;;6.98;48.38
8920;BME280;4495;42.644;23.274;2024-02-15T12:03:07;93373.94;;;7.06;47.97
8920;BME280;4495;42.644;23.274;2024-02-15T12:05:51;93370.28;;;6.93;47.64
8920;BME280;4495;42.644;23.274;2024-02-15T12:08:36;93365.28;;;6.69;48.40
8920;BME280;4495;42.644;23.274;2024-02-15T12:11:20;93364.03;;;6.66;48.68
8920;BME280;4495;42.644;23.274;2024-02-15T12:14:03;93360.28;;;7.83;46.38
8920;BME280;4495;42.644;23.274;2024-02-15T12:17:04;93357.00;;;7.91;45.17
8920;BME280;4495;42.644;23.274;2024-02-15T12:19:49;93362.25;;;8.23;45.04
8920;BME280;4495;42.644;23.274;2024-02-15T12:22:21;93358.44;;;8.20;44.56
8920;BME280;4495;42.644;23.274;2024-02-15T12:24:58;93366.97;;;9.20;40.77
8920;BME280;4495;42.644;23.274;2024-02-15T12:27:24;93371.72;;;8.86;42.15
8920;BME280;4495;42.644;23.274;2024-02-15T12:29:54;93357.28;;;8.49;42.26
8920;BME280;4495;42.644;23.274;2024-02-15T12:32:21;93360.66;;;8.49;44.28
8920;BME280;4495;42.644;23.274;2024-02-15T12:34:47;93361.97;;;9.32;41.89
8920;BME280;4495;42.644;23.274;2024-02-15T12:37:13;93351.22;;;10.69;39.78
8920;BME280;4495;42.644;23.274;2024-02-15T12:39:38;93354.38;;;11.39;38.88
8920;BME280;4495;42.644;23.274;2024-02-15T12:42:06;93359.34;;;10.24;39.73
8920;BME280;4495;42.644;23.274;2024-02-15T12:44:32;93353.94;;;9.02;42.58
8920;BME280;4495;42.644;23.274;2024-02-15T12:46:59;93349.56;;;8.35;44.22
8920;BME280;4495;42.644;23.274;2024-02-15T12:51:53;93352.41;;;7.38;45.20
8920;BME280;4495;42.644;23.274;2024-02-15T12:54:22;93351.41;;;6.93;46.59
8920;BME280;4495;42.644;23.274;2024-02-15T12:56:48;93344.97;;;6.62;47.55
8920;BME280;4495;42.644;23.274;2024-02-15T12:59:19;93341.03;;;5.99;49.58
8920;BME280;4495;42.644;23.274;2024-02-15T13:01:46;93343.53;;;6.23;50.31
8920;BME280;4495;42.644;23.274;2024-02-15T13:04:24;93344.00;;;6.26;50.33
8920;BME280;4495;42.644;23.274;2024-02-15T13:06:53;93347.31;;;6.12;50.59
8920;BME280;4495;42.644;23.274;2024-02-15T13:09:18;93346.09;;;5.86;51.18
8920;BME280;4495;42.644;23.274;2024-02-15T13:11:44;93342.69;;;5.90;50.08
8920;BME280;4495;42.644;23.274;2024-02-15T13:14:11;93338.22;;;5.77;52.35
8920;BME280;4495;42.644;23.274;2024-02-15T13:16:36;93338.38;;;5.86;51.14
8920;BME280;4495;42.644;23.274;2024-02-15T13:19:02;93342.53;;;5.81;52.72
8920;BME280;4495;42.644;23.274;2024-02-15T13:21:28;93335.69;;;5.91;51.58
8920;BME280;4495;42.644;23.274;2024-02-15T13:23:56;93344.28;;;5.86;52.60
8920;BME280;4495;42.644;23.274;2024-02-15T13:26:21;93340.28;;;5.94;52.17
8920;BME280;4495;42.644;23.274;2024-02-15T13:28:49;93342.06;;;5.79;52.71
8920;BME280;4495;42.644;23.274;2024-02-15T13:31:15;93339.09;;;5.67;50.49
8920;BME280;4495;42.644;23.274;2024-02-15T13:33:40;93332.84;;;5.92;51.13
8920;BME280;4495;42.644;23.274;2024-02-15T13:36:06;93330.66;;;6.18;52.02
8920;BME280;4495;42.644;23.274;2024-02-15T13:38:36;93335.03;;;6.04;51.45
8920;BME280;4495;42.644;23.274;2024-02-15T13:41:02;93333.81;;;5.96;50.52